sensor_id;sensor_type;location;lat;lon;timestamp;P1;durP1;ratioP1;P2;durP2;ratioP2
34236;SDS011;20501;45.956;13.632;2022-12-20T00:01:05;25.33;;;13.38;;
34236;SDS011;20501;45.956;13.632;2022-12-20T00:03:35;37.83;;;16.52;;
34236;SDS011;20501;45.956;13.632;2022-12-20T00:06:01;27.17;;;14.30;;
34236;SDS011;20501;45.956;13.632;2022-12-20T00:08:26;23.33;;;12.68;;
34236;SDS011;20501;45.956;13.632;2022-12-20T00:10:51;29.92;;;15.10;;
34236;SDS011;20501;45.956;13.632;2022-12-20T00:13:17;33.88;;;16.50;;
34236;SDS011;20501;45.956;13.632;2022-12-20T00:15:42;27.42;;;14.90;;
34236;SDS011;20501;45.956;13.632;2022-12-20T00:18:08;27.25;;;13.43;;
34236;SDS011;20501;45.956;13.632;2022-12-20T00:20:34;22.75;;;12.60;;
34236;SDS011;20501;45.956;13.632;2022-12-20T00:22:59;28.13;;;14.68;;
34236;SDS011;20501;45.956;13.632;2022-12-20T00:25:25;34.17;;;17.05;;
34236;SDS011;20501;45.956;13.632;2022-12-20T00:27:51;37.40;;;17.38;;
34236;SDS011;20501;45.956;13.632;2022-12-20T00:30:16;34.75;;;15.82;;
34236;SDS011;20501;45.956;13.632;2022-12-20T00:32:42;30.55;;;16.55;;
34236;SDS011;20501;45.956;13.632;2022-12-20T00:35:08;30.77;;;17.00;;
34236;SDS011;20501;45.956;13.632;2022-12-20T00:37:34;33.13;;;17.17;;
34236;SDS011;20501;45.956;13.632;2022-12-20T00:39:59;29.90;;;15.27;;
34236;SDS011;20501;45.956;13.632;2022-12-20T00:42:25;29.58;;;14.35;;
34236;SDS011;20501;45.956;13.632;2022-12-20T00:44:50;32.72;;;16.73;;
34236;SDS011;20501;45.956;13.632;2022-12-20T00:47:15;34.45;;;17.25;;
34236;SDS011;20501;45.956;13.632;2022-12-20T00:49:41;25.17;;;13.23;;
34236;SDS011;20501;45.956;13.632;2022-12-20T00:52:07;28.85;;;14.63;;
34236;SDS011;20501;45.956;13.632;2022-12-20T00:54:32;23.73;;;11.65;;
34236;SDS011;20501;45.956;13.632;2022-12-20T00:56:58;26.75;;;13.40;;
34236;SDS011;20501;45.956;13.632;2022-12-20T00:59:23;24.58;;;12.75;;
34236;SDS011;20501;45.956;13.632;2022-12-20T01:01:49;26.30;;;14.52;;
34236;SDS011;20501;45.956;13.632;2022-12-20T01:04:15;23.88;;;12.65;;
34236;SDS011;20501;45.956;13.632;2022-12-20T01:06:40;25.30;;;12.30;;
34236;SDS011;20501;45.956;13.632;2022-12-20T01:09:06;24.23;;;11.70;;
34236;SDS011;20501;45.956;13.632;2022-12-20T01:11:32;27.30;;;13.65;;
34236;SDS011;20501;45.956;13.632;2022-12-20T01:14:00;22.10;;;11.52;;
34236;SDS011;20501;45.956;13.632;2022-12-20T01:16:33;29.58;;;14.32;;
34236;SDS011;20501;45.956;13.632;2022-12-20T01:19:00;23.77;;;12.60;;
34236;SDS011;20501;45.956;13.632;2022-12-20T01:21:26;29.88;;;15.63;;
34236;SDS011;20501;45.956;13.632;2022-12-20T01:23:52;20.30;;;11.93;;
34236;SDS011;20501;45.956;13.632;2022-12-20T01:26:19;24.63;;;13.70;;
34236;SDS011;20501;45.956;13.632;2022-12-20T01:28:46;22.27;;;12.13;;
34236;SDS011;20501;45.956;13.632;2022-12-20T01:31:14;31.02;;;16.08;;
34236;SDS011;20501;45.956;13.632;2022-12-20T01:33:41;31.45;;;15.85;;
34236;SDS011;20501;45.956;13.632;2022-12-20T01:36:10;25.25;;;13.00;;
34236;SDS011;20501;45.956;13.632;2022-12-20T01:38:37;34.60;;;16.25;;
34236;SDS011;20501;45.956;13.632;2022-12-20T01:41:02;28.98;;;14.88;;
34236;SDS011;20501;45.956;13.632;2022-12-20T01:43:44;25.88;;;14.27;;
34236;SDS011;20501;45.956;13.632;2022-12-20T01:46:10;27.75;;;14.27;;
34236;SDS011;20501;45.956;13.632;2022-12-20T01:48:36;30.70;;;16.75;;
34236;SDS011;20501;45.956;13.632;2022-12-20T01:51:02;24.65;;;13.18;;
34236;SDS011;20501;45.956;13.632;2022-12-20T01:53:28;29.58;;;15.45;;
34236;SDS011;20501;45.956;13.632;2022-12-20T01:55:55;26.77;;;14.17;;
34236;SDS011;20501;45.956;13.632;2022-12-20T01:58:23;33.35;;;15.90;;
34236;SDS011;20501;45.956;13.632;2022-12-20T02:00:48;27.08;;;14.65;;
34236;SDS011;20501;45.956;13.632;2022-12-20T02:03:13;25.23;;;13.55;;
34236;SDS011;20501;45.956;13.632;2022-12-20T02:05:41;24.85;;;13.60;;
34236;SDS011;20501;45.956;13.632;2022-12-20T02:08:14;33.78;;;16.50;;
34236;SDS011;20501;45.956;13.632;2022-12-20T02:15:55;30.85;;;16.30;;
34236;SDS011;20501;45.956;13.632;2022-12-20T02:31:25;29.52;;;15.75;;
34236;SDS011;20501;45.956;13.632;2022-12-20T02:33:54;25.10;;;12.45;;
34236;SDS011;20501;45.956;13.632;2022-12-20T02:36:22;21.40;;;12.43;;
34236;SDS011;20501;45.956;13.632;2022-12-20T02:38:49;24.00;;;12.50;;
34236;SDS011;20501;45.956;13.632;2022-12-20T02:41:23;25.42;;;13.23;;
34236;SDS011;20501;45.956;13.632;2022-12-20T02:44:04;26.45;;;14.55;;
34236;SDS011;20501;45.956;13.632;2022-12-20T02:46:54;23.95;;;13.20;;
34236;SDS011;20501;45.956;13.632;2022-12-20T02:49:23;29.90;;;14.93;;
34236;SDS011;20501;45.956;13.632;2022-12-20T02:51:53;25.58;;;14.25;;
34236;SDS011;20501;45.956;13.632;2022-12-20T02:54:21;28.52;;;15.27;;
34236;SDS011;20501;45.956;13.632;2022-12-20T02:57:31;30.27;;;16.92;;
34236;SDS011;20501;45.956;13.632;2022-12-20T02:59:56;28.77;;;15.73;;
34236;SDS011;20501;45.956;13.632;2022-12-20T03:02:27;34.90;;;16.48;;
34236;SDS011;20501;45.956;13.632;2022-12-20T03:05:14;27.20;;;13.80;;
34236;SDS011;20501;45.956;13.632;2022-12-20T03:07:40;33.08;;;16.13;;
34236;SDS011;20501;45.956;13.632;2022-12-20T03:10:05;29.73;;;15.80;;
34236;SDS011;20501;45.956;13.632;2022-12-20T03:12:31;32.92;;;15.40;;
34236;SDS011;20501;45.956;13.632;2022-12-20T03:14:57;33.45;;;15.80;;
34236;SDS011;20501;45.956;13.632;2022-12-20T03:17:22;32.47;;;16.75;;
34236;SDS011;20501;45.956;13.632;2022-12-20T03:19:47;26.58;;;14.13;;
34236;SDS011;20501;45.956;13.632;2022-12-20T03:22:13;29.98;;;14.55;;
34236;SDS011;20501;45.956;13.632;2022-12-20T03:24:38;32.35;;;16.05;;
34236;SDS011;20501;45.956;13.632;2022-12-20T03:27:03;29.08;;;14.00;;
34236;SDS011;20501;45.956;13.632;2022-12-20T03:29:29;34.30;;;17.35;;
34236;SDS011;20501;45.956;13.632;2022-12-20T03:31:54;30.35;;;15.77;;
34236;SDS011;20501;45.956;13.632;2022-12-20T03:34:20;29.38;;;15.48;;
34236;SDS011;20501;45.956;13.632;2022-12-20T03:36:45;35.55;;;17.15;;
34236;SDS011;20501;45.956;13.632;2022-12-20T03:39:11;28.65;;;15.25;;
34236;SDS011;20501;45.956;13.632;2022-12-20T03:41:36;30.83;;;15.98;;
34236;SDS011;20501;45.956;13.632;2022-12-20T03:44:02;27.50;;;13.75;;
34236;SDS011;20501;45.956;13.632;2022-12-20T03:46:27;25.27;;;13.25;;
34236;SDS011;20501;45.956;13.632;2022-12-20T03:48:52;23.92;;;12.30;;
34236;SDS011;20501;45.956;13.632;2022-12-20T03:51:18;23.67;;;12.88;;
34236;SDS011;20501;45.956;13.632;2022-12-20T03:53:43;26.02;;;13.15;;
34236;SDS011;20501;45.956;13.632;2022-12-20T03:56:09;23.67;;;12.55;;
34236;SDS011;20501;45.956;13.632;2022-12-20T03:58:34;23.00;;;12.82;;
34236;SDS011;20501;45.956;13.632;2022-12-20T04:00:59;22.38;;;12.25;;
34236;SDS011;20501;45.956;13.632;2022-12-20T04:03:25;25.08;;;13.38;;
34236;SDS011;20501;45.956;13.632;2022-12-20T04:05:50;29.73;;;16.25;;
34236;SDS011;20501;45.956;13.632;2022-12-20T04:08:16;29.33;;;14.90;;
34236;SDS011;20501;45.956;13.632;2022-12-20T04:10:41;24.77;;;12.88;;
34236;SDS011;20501;45.956;13.632;2022-12-20T04:13:25;30.23;;;14.13;;
34236;SDS011;20501;45.956;13.632;2022-12-20T04:15:50;29.27;;;14.68;;
34236;SDS011;20501;45.956;13.632;2022-12-20T04:18:16;24.88;;;12.93;;
34236;SDS011;20501;45.956;13.632;2022-12-20T04:20:41;25.92;;;14.43;;
34236;SDS011;20501;45.956;13.632;2022-12-20T04:23:06;20.23;;;11.48;;
34236;SDS011;20501;45.956;13.632;2022-12-20T04:25:32;20.95;;;11.90;;
34236;SDS011;20501;45.956;13.632;2022-12-20T04:27:57;24.50;;;13.38;;
34236;SDS011;20501;45.956;13.632;2022-12-20T04:30:23;30.17;;;14.45;;
34236;SDS011;20501;45.956;13.632;2022-12-20T04:32:48;31.55;;;16.17;;
34236;SDS011;20501;45.956;13.632;2022-12-20T04:35:18;26.42;;;14.10;;
34236;SDS011;20501;45.956;13.632;2022-12-20T04:37:44;28.13;;;14.75;;
34236;SDS011;20501;45.956;13.632;2022-12-20T04:40:09;29.33;;;14.85;;
34236;SDS011;20501;45.956;13.632;2022-12-20T04:42:35;26.02;;;12.52;;
34236;SDS011;20501;45.956;13.632;2022-12-20T04:45:01;22.58;;;11.93;;
34236;SDS011;20501;45.956;13.632;2022-12-20T04:49:53;30.15;;;14.80;;
34236;SDS011;20501;45.956;13.632;2022-12-20T04:52:18;28.83;;;15.15;;
34236;SDS011;20501;45.956;13.632;2022-12-20T04:55:03;23.23;;;12.98;;
34236;SDS011;20501;45.956;13.632;2022-12-20T04:57:28;27.45;;;13.18;;
34236;SDS011;20501;45.956;13.632;2022-12-20T04:59:54;27.60;;;14.60;;
34236;SDS011;20501;45.956;13.632;2022-12-20T05:02:19;23.02;;;12.20;;
34236;SDS011;20501;45.956;13.632;2022-12-20T05:04:44;22.60;;;13.02;;
34236;SDS011;20501;45.956;13.632;2022-12-20T05:07:10;25.50;;;14.32;;
34236;SDS011;20501;45.956;13.632;2022-12-20T05:09:35;25.05;;;12.57;;
34236;SDS011;20501;45.956;13.632;2022-12-20T05:12:01;28.30;;;14.73;;
34236;SDS011;20501;45.956;13.632;2022-12-20T05:14:26;24.60;;;13.10;;
34236;SDS011;20501;45.956;13.632;2022-12-20T05:16:52;28.48;;;13.60;;
34236;SDS011;20501;45.956;13.632;2022-12-20T05:19:18;23.15;;;12.52;;
34236;SDS011;20501;45.956;13.632;2022-12-20T05:21:43;23.42;;;12.20;;
34236;SDS011;20501;45.956;13.632;2022-12-20T05:24:27;24.83;;;11.93;;
34236;SDS011;20501;45.956;13.632;2022-12-20T05:27:11;23.40;;;12.57;;
34236;SDS011;20501;45.956;13.632;2022-12-20T05:29:36;27.73;;;13.80;;
34236;SDS011;20501;45.956;13.632;2022-12-20T05:32:02;25.40;;;14.60;;
34236;SDS011;20501;45.956;13.632;2022-12-20T05:34:27;22.88;;;12.63;;
34236;SDS011;20501;45.956;13.632;2022-12-20T05:36:52;30.60;;;14.98;;
34236;SDS011;20501;45.956;13.632;2022-12-20T05:39:18;21.35;;;11.75;;
34236;SDS011;20501;45.956;13.632;2022-12-20T05:41:43;31.42;;;16.27;;
34236;SDS011;20501;45.956;13.632;2022-12-20T05:44:09;29.13;;;15.48;;
34236;SDS011;20501;45.956;13.632;2022-12-20T05:46:34;32.70;;;15.68;;
34236;SDS011;20501;45.956;13.632;2022-12-20T05:48:59;32.55;;;16.27;;
34236;SDS011;20501;45.956;13.632;2022-12-20T05:51:25;31.30;;;16.25;;
34236;SDS011;20501;45.956;13.632;2022-12-20T05:53:50;31.23;;;17.00;;
34236;SDS011;20501;45.956;13.632;2022-12-20T05:56:16;33.05;;;17.15;;
34236;SDS011;20501;45.956;13.632;2022-12-20T05:58:41;32.55;;;16.90;;
34236;SDS011;20501;45.956;13.632;2022-12-20T06:01:07;29.75;;;15.85;;
34236;SDS011;20501;45.956;13.632;2022-12-20T06:03:33;32.53;;;14.87;;
34236;SDS011;20501;45.956;13.632;2022-12-20T06:05:58;33.95;;;17.13;;
34236;SDS011;20501;45.956;13.632;2022-12-20T06:08:24;29.40;;;15.15;;
34236;SDS011;20501;45.956;13.632;2022-12-20T06:10:49;32.53;;;15.27;;
34236;SDS011;20501;45.956;13.632;2022-12-20T06:13:15;25.35;;;14.32;;
34236;SDS011;20501;45.956;13.632;2022-12-20T06:15:41;30.00;;;15.43;;
34236;SDS011;20501;45.956;13.632;2022-12-20T06:18:06;27.40;;;13.68;;
34236;SDS011;20501;45.956;13.632;2022-12-20T06:20:35;26.13;;;13.98;;
34236;SDS011;20501;45.956;13.632;2022-12-20T06:23:01;31.95;;;16.50;;
34236;SDS011;20501;45.956;13.632;2022-12-20T06:25:27;29.40;;;14.47;;
34236;SDS011;20501;45.956;13.632;2022-12-20T06:27:53;25.58;;;12.60;;
34236;SDS011;20501;45.956;13.632;2022-12-20T06:30:19;31.92;;;17.02;;
34236;SDS011;20501;45.956;13.632;2022-12-20T06:32:45;33.53;;;16.83;;
34236;SDS011;20501;45.956;13.632;2022-12-20T06:35:10;30.40;;;15.75;;
34236;SDS011;20501;45.956;13.632;2022-12-20T06:37:36;31.00;;;15.38;;
34236;SDS011;20501;45.956;13.632;2022-12-20T06:40:04;35.95;;;17.60;;
34236;SDS011;20501;45.956;13.632;2022-12-20T06:42:31;33.25;;;17.80;;
34236;SDS011;20501;45.956;13.632;2022-12-20T06:44:56;36.20;;;16.13;;
34236;SDS011;20501;45.956;13.632;2022-12-20T06:47:21;32.58;;;17.52;;
34236;SDS011;20501;45.956;13.632;2022-12-20T06:49:47;32.45;;;16.50;;
34236;SDS011;20501;45.956;13.632;2022-12-20T06:52:12;37.55;;;18.50;;
34236;SDS011;20501;45.956;13.632;2022-12-20T06:54:38;31.75;;;16.85;;
34236;SDS011;20501;45.956;13.632;2022-12-20T06:57:03;36.30;;;16.92;;
34236;SDS011;20501;45.956;13.632;2022-12-20T06:59:28;32.10;;;14.93;;
34236;SDS011;20501;45.956;13.632;2022-12-20T07:01:54;29.25;;;14.88;;
34236;SDS011;20501;45.956;13.632;2022-12-20T07:04:19;31.95;;;15.32;;
34236;SDS011;20501;45.956;13.632;2022-12-20T07:06:45;31.65;;;16.80;;
34236;SDS011;20501;45.956;13.632;2022-12-20T07:09:10;27.17;;;13.23;;
34236;SDS011;20501;45.956;13.632;2022-12-20T07:11:36;29.35;;;14.77;;
34236;SDS011;20501;45.956;13.632;2022-12-20T07:14:01;25.42;;;13.43;;
34236;SDS011;20501;45.956;13.632;2022-12-20T07:16:27;26.23;;;14.02;;
34236;SDS011;20501;45.956;13.632;2022-12-20T07:18:52;31.13;;;16.75;;
34236;SDS011;20501;45.956;13.632;2022-12-20T07:21:19;23.27;;;13.65;;
34236;SDS011;20501;45.956;13.632;2022-12-20T07:23:45;27.53;;;13.43;;
34236;SDS011;20501;45.956;13.632;2022-12-20T07:26:12;22.73;;;12.97;;
34236;SDS011;20501;45.956;13.632;2022-12-20T07:28:38;27.02;;;14.40;;
34236;SDS011;20501;45.956;13.632;2022-12-20T07:31:04;31.90;;;15.68;;
34236;SDS011;20501;45.956;13.632;2022-12-20T07:33:30;31.85;;;16.98;;
34236;SDS011;20501;45.956;13.632;2022-12-20T07:36:02;35.05;;;18.27;;
34236;SDS011;20501;45.956;13.632;2022-12-20T07:38:33;33.20;;;17.25;;
34236;SDS011;20501;45.956;13.632;2022-12-20T07:41:00;37.10;;;17.33;;
34236;SDS011;20501;45.956;13.632;2022-12-20T07:43:25;33.70;;;17.10;;
34236;SDS011;20501;45.956;13.632;2022-12-20T07:45:55;27.35;;;14.88;;
34236;SDS011;20501;45.956;13.632;2022-12-20T07:48:21;36.03;;;17.30;;
34236;SDS011;20501;45.956;13.632;2022-12-20T07:50:48;25.45;;;14.63;;
34236;SDS011;20501;45.956;13.632;2022-12-20T07:53:15;30.25;;;15.13;;
34236;SDS011;20501;45.956;13.632;2022-12-20T07:55:41;38.70;;;18.27;;
34236;SDS011;20501;45.956;13.632;2022-12-20T07:58:08;33.25;;;14.90;;
34236;SDS011;20501;45.956;13.632;2022-12-20T08:00:35;39.17;;;20.00;;
34236;SDS011;20501;45.956;13.632;2022-12-20T08:03:06;43.38;;;22.00;;
34236;SDS011;20501;45.956;13.632;2022-12-20T08:05:36;40.17;;;20.50;;
34236;SDS011;20501;45.956;13.632;2022-12-20T08:08:05;37.72;;;20.20;;
34236;SDS011;20501;45.956;13.632;2022-12-20T08:12:58;32.97;;;15.75;;
34236;SDS011;20501;45.956;13.632;2022-12-20T08:15:24;37.38;;;18.20;;
34236;SDS011;20501;45.956;13.632;2022-12-20T08:17:50;29.58;;;15.73;;
34236;SDS011;20501;45.956;13.632;2022-12-20T08:20:16;32.95;;;16.70;;
34236;SDS011;20501;45.956;13.632;2022-12-20T08:22:42;35.22;;;16.83;;
34236;SDS011;20501;45.956;13.632;2022-12-20T08:25:07;35.97;;;18.02;;
34236;SDS011;20501;45.956;13.632;2022-12-20T08:27:33;35.50;;;17.67;;
34236;SDS011;20501;45.956;13.632;2022-12-20T08:29:59;28.85;;;13.98;;
34236;SDS011;20501;45.956;13.632;2022-12-20T08:32:24;23.65;;;13.63;;
34236;SDS011;20501;45.956;13.632;2022-12-20T08:34:51;30.93;;;15.43;;
34236;SDS011;20501;45.956;13.632;2022-12-20T08:37:17;24.43;;;13.93;;
34236;SDS011;20501;45.956;13.632;2022-12-20T08:39:43;36.47;;;17.10;;
34236;SDS011;20501;45.956;13.632;2022-12-20T08:42:08;26.10;;;14.48;;
34236;SDS011;20501;45.956;13.632;2022-12-20T08:44:34;32.00;;;14.82;;
34236;SDS011;20501;45.956;13.632;2022-12-20T08:46:59;24.75;;;14.27;;
34236;SDS011;20501;45.956;13.632;2022-12-20T08:49:25;26.52;;;13.77;;
34236;SDS011;20501;45.956;13.632;2022-12-20T08:51:50;27.17;;;15.32;;
34236;SDS011;20501;45.956;13.632;2022-12-20T08:54:16;32.25;;;16.48;;
34236;SDS011;20501;45.956;13.632;2022-12-20T08:56:41;27.13;;;13.57;;
34236;SDS011;20501;45.956;13.632;2022-12-20T08:59:07;30.27;;;14.70;;
34236;SDS011;20501;45.956;13.632;2022-12-20T09:01:32;29.20;;;15.05;;
34236;SDS011;20501;45.956;13.632;2022-12-20T09:03:58;25.42;;;13.52;;
34236;SDS011;20501;45.956;13.632;2022-12-20T09:06:24;29.33;;;15.02;;
34236;SDS011;20501;45.956;13.632;2022-12-20T09:08:49;26.58;;;13.40;;
34236;SDS011;20501;45.956;13.632;2022-12-20T09:11:18;27.25;;;14.13;;
34236;SDS011;20501;45.956;13.632;2022-12-20T09:13:46;33.25;;;17.92;;
34236;SDS011;20501;45.956;13.632;2022-12-20T09:16:14;27.63;;;15.02;;
34236;SDS011;20501;45.956;13.632;2022-12-20T09:18:41;27.65;;;15.15;;
34236;SDS011;20501;45.956;13.632;2022-12-20T09:21:07;33.20;;;16.95;;
34236;SDS011;20501;45.956;13.632;2022-12-20T09:23:34;26.10;;;14.40;;
34236;SDS011;20501;45.956;13.632;2022-12-20T09:28:30;32.45;;;15.95;;
34236;SDS011;20501;45.956;13.632;2022-12-20T09:30:57;25.50;;;13.90;;
34236;SDS011;20501;45.956;13.632;2022-12-20T09:33:27;44.17;;;18.30;;
34236;SDS011;20501;45.956;13.632;2022-12-20T09:35:53;27.48;;;13.88;;
34236;SDS011;20501;45.956;13.632;2022-12-20T09:38:19;27.88;;;14.88;;
34236;SDS011;20501;45.956;13.632;2022-12-20T09:40:46;26.05;;;13.70;;
34236;SDS011;20501;45.956;13.632;2022-12-20T09:43:18;29.42;;;15.20;;
34236;SDS011;20501;45.956;13.632;2022-12-20T09:45:45;35.33;;;17.42;;
34236;SDS011;20501;45.956;13.632;2022-12-20T09:48:20;25.00;;;13.05;;
34236;SDS011;20501;45.956;13.632;2022-12-20T09:50:52;22.63;;;12.40;;
34236;SDS011;20501;45.956;13.632;2022-12-20T09:56:21;29.10;;;15.95;;
34236;SDS011;20501;45.956;13.632;2022-12-20T09:59:05;28.85;;;15.40;;
34236;SDS011;20501;45.956;13.632;2022-12-20T10:01:35;31.98;;;16.08;;
34236;SDS011;20501;45.956;13.632;2022-12-20T10:04:04;27.27;;;14.27;;
34236;SDS011;20501;45.956;13.632;2022-12-20T10:09:29;31.58;;;16.40;;
34236;SDS011;20501;45.956;13.632;2022-12-20T10:18:01;30.23;;;14.30;;
34236;SDS011;20501;45.956;13.632;2022-12-20T10:25:48;32.67;;;17.33;;
34236;SDS011;20501;45.956;13.632;2022-12-20T10:28:15;33.38;;;18.42;;
34236;SDS011;20501;45.956;13.632;2022-12-20T10:30:41;31.38;;;17.20;;
34236;SDS011;20501;45.956;13.632;2022-12-20T10:33:13;46.47;;;21.77;;
34236;SDS011;20501;45.956;13.632;2022-12-20T10:35:44;29.02;;;14.10;;
34236;SDS011;20501;45.956;13.632;2022-12-20T10:38:11;41.33;;;18.77;;
34236;SDS011;20501;45.956;13.632;2022-12-20T10:43:05;75.22;;;29.23;;
34236;SDS011;20501;45.956;13.632;2022-12-20T10:45:39;100.47;;;39.47;;
34236;SDS011;20501;45.956;13.632;2022-12-20T10:50:58;53.78;;;24.40;;
34236;SDS011;20501;45.956;13.632;2022-12-20T10:53:32;44.40;;;22.38;;
34236;SDS011;20501;45.956;13.632;2022-12-20T10:56:21;47.23;;;23.40;;
34236;SDS011;20501;45.956;13.632;2022-12-20T11:01:19;39.90;;;19.67;;
34236;SDS011;20501;45.956;13.632;2022-12-20T11:03:53;42.50;;;20.77;;
34236;SDS011;20501;45.956;13.632;2022-12-20T11:06:20;46.15;;;22.88;;
34236;SDS011;20501;45.956;13.632;2022-12-20T11:08:47;40.13;;;19.95;;
34236;SDS011;20501;45.956;13.632;2022-12-20T11:13:44;35.67;;;18.17;;
34236;SDS011;20501;45.956;13.632;2022-12-20T11:19:37;36.72;;;17.08;;
34236;SDS011;20501;45.956;13.632;2022-12-20T11:22:18;41.85;;;19.08;;
34236;SDS011;20501;45.956;13.632;2022-12-20T11:30:08;40.50;;;19.02;;
34236;SDS011;20501;45.956;13.632;2022-12-20T11:35:23;83.40;;;36.95;;
34236;SDS011;20501;45.956;13.632;2022-12-20T11:40:44;88.20;;;37.83;;
34236;SDS011;20501;45.956;13.632;2022-12-20T11:54:16;62.15;;;27.35;;
34236;SDS011;20501;45.956;13.632;2022-12-20T11:56:50;50.90;;;24.50;;
34236;SDS011;20501;45.956;13.632;2022-12-20T12:02:13;55.15;;;26.30;;
34236;SDS011;20501;45.956;13.632;2022-12-20T12:04:48;56.08;;;26.33;;
34236;SDS011;20501;45.956;13.632;2022-12-20T12:07:20;42.13;;;21.83;;
34236;SDS011;20501;45.956;13.632;2022-12-20T12:12:47;46.38;;;21.85;;
34236;SDS011;20501;45.956;13.632;2022-12-20T12:15:35;42.60;;;20.95;;
34236;SDS011;20501;45.956;13.632;2022-12-20T12:18:45;37.97;;;19.35;;
34236;SDS011;20501;45.956;13.632;2022-12-20T12:21:07;39.75;;;19.92;;
34236;SDS011;20501;45.956;13.632;2022-12-20T12:23:41;38.92;;;19.30;;
34236;SDS011;20501;45.956;13.632;2022-12-20T12:44:55;30.02;;;16.50;;
34236;SDS011;20501;45.956;13.632;2022-12-20T12:50:03;34.55;;;18.45;;
34236;SDS011;20501;45.956;13.632;2022-12-20T12:52:45;29.88;;;15.27;;
34236;SDS011;20501;45.956;13.632;2022-12-20T12:55:35;33.25;;;16.17;;
34236;SDS011;20501;45.956;13.632;2022-12-20T13:09:15;39.13;;;19.95;;
34236;SDS011;20501;45.956;13.632;2022-12-20T13:11:42;29.73;;;16.38;;
34236;SDS011;20501;45.956;13.632;2022-12-20T13:16:43;34.40;;;19.13;;
34236;SDS011;20501;45.956;13.632;2022-12-20T13:19:10;28.50;;;16.05;;
34236;SDS011;20501;45.956;13.632;2022-12-20T13:21:37;28.67;;;14.48;;
34236;SDS011;20501;45.956;13.632;2022-12-20T13:36:00;44.97;;;21.60;;
34236;SDS011;20501;45.956;13.632;2022-12-20T13:41:20;29.27;;;15.02;;
34236;SDS011;20501;45.956;13.632;2022-12-20T13:43:52;37.17;;;21.33;;
34236;SDS011;20501;45.956;13.632;2022-12-20T13:46:21;47.50;;;24.05;;
34236;SDS011;20501;45.956;13.632;2022-12-20T13:51:22;43.05;;;21.98;;
34236;SDS011;20501;45.956;13.632;2022-12-20T13:54:03;31.45;;;18.05;;
34236;SDS011;20501;45.956;13.632;2022-12-20T13:59:32;51.67;;;26.13;;
34236;SDS011;20501;45.956;13.632;2022-12-20T14:01:59;56.80;;;27.23;;
34236;SDS011;20501;45.956;13.632;2022-12-20T14:04:38;40.70;;;21.70;;
34236;SDS011;20501;45.956;13.632;2022-12-20T14:07:07;53.95;;;26.77;;
34236;SDS011;20501;45.956;13.632;2022-12-20T14:09:37;81.97;;;37.53;;
34236;SDS011;20501;45.956;13.632;2022-12-20T14:12:13;57.00;;;25.55;;
34236;SDS011;20501;45.956;13.632;2022-12-20T14:17:28;38.60;;;20.92;;
34236;SDS011;20501;45.956;13.632;2022-12-20T14:22:31;45.55;;;23.42;;
34236;SDS011;20501;45.956;13.632;2022-12-20T14:25:00;38.42;;;20.60;;
34236;SDS011;20501;45.956;13.632;2022-12-20T14:27:29;41.22;;;21.38;;
34236;SDS011;20501;45.956;13.632;2022-12-20T14:29:59;46.88;;;21.75;;
34236;SDS011;20501;45.956;13.632;2022-12-20T14:32:25;36.58;;;18.80;;
34236;SDS011;20501;45.956;13.632;2022-12-20T14:34:50;36.80;;;19.08;;
34236;SDS011;20501;45.956;13.632;2022-12-20T14:37:33;35.10;;;19.77;;
34236;SDS011;20501;45.956;13.632;2022-12-20T14:42:34;31.45;;;17.63;;
34236;SDS011;20501;45.956;13.632;2022-12-20T14:47:47;32.60;;;17.48;;
34236;SDS011;20501;45.956;13.632;2022-12-20T14:50:34;35.58;;;16.85;;
34236;SDS011;20501;45.956;13.632;2022-12-20T14:53:02;28.92;;;15.80;;
34236;SDS011;20501;45.956;13.632;2022-12-20T14:55:38;32.07;;;17.47;;
34236;SDS011;20501;45.956;13.632;2022-12-20T15:01:16;28.83;;;16.10;;
34236;SDS011;20501;45.956;13.632;2022-12-20T15:03:53;28.02;;;16.23;;
34236;SDS011;20501;45.956;13.632;2022-12-20T15:06:36;30.83;;;16.70;;
34236;SDS011;20501;45.956;13.632;2022-12-20T15:09:05;31.67;;;17.05;;
34236;SDS011;20501;45.956;13.632;2022-12-20T15:11:30;27.33;;;15.18;;
34236;SDS011;20501;45.956;13.632;2022-12-20T15:13:59;28.33;;;16.13;;
34236;SDS011;20501;45.956;13.632;2022-12-20T15:16:25;31.35;;;15.63;;
34236;SDS011;20501;45.956;13.632;2022-12-20T15:18:59;33.40;;;16.50;;
34236;SDS011;20501;45.956;13.632;2022-12-20T15:23:52;29.58;;;15.85;;
34236;SDS011;20501;45.956;13.632;2022-12-20T15:26:19;25.77;;;14.65;;
34236;SDS011;20501;45.956;13.632;2022-12-20T15:28:47;28.17;;;15.45;;
34236;SDS011;20501;45.956;13.632;2022-12-20T15:31:14;33.90;;;18.33;;
34236;SDS011;20501;45.956;13.632;2022-12-20T15:33:42;31.27;;;16.73;;
34236;SDS011;20501;45.956;13.632;2022-12-20T15:36:22;28.73;;;15.70;;
34236;SDS011;20501;45.956;13.632;2022-12-20T15:38:50;47.35;;;21.40;;
34236;SDS011;20501;45.956;13.632;2022-12-20T15:41:27;56.50;;;20.55;;
34236;SDS011;20501;45.956;13.632;2022-12-20T15:43:56;30.20;;;15.18;;
34236;SDS011;20501;45.956;13.632;2022-12-20T15:46:23;40.20;;;20.10;;
34236;SDS011;20501;45.956;13.632;2022-12-20T15:48:49;33.65;;;18.83;;
34236;SDS011;20501;45.956;13.632;2022-12-20T15:51:16;29.50;;;15.77;;
34236;SDS011;20501;45.956;13.632;2022-12-20T15:53:53;33.83;;;15.38;;
34236;SDS011;20501;45.956;13.632;2022-12-20T15:56:20;28.92;;;15.77;;
34236;SDS011;20501;45.956;13.632;2022-12-20T15:58:47;35.85;;;19.77;;
34236;SDS011;20501;45.956;13.632;2022-12-20T16:01:20;31.02;;;16.40;;
34236;SDS011;20501;45.956;13.632;2022-12-20T16:03:49;44.15;;;22.25;;
34236;SDS011;20501;45.956;13.632;2022-12-20T16:06:15;36.55;;;18.85;;
34236;SDS011;20501;45.956;13.632;2022-12-20T16:08:41;31.60;;;15.98;;
34236;SDS011;20501;45.956;13.632;2022-12-20T16:11:12;31.80;;;14.68;;
34236;SDS011;20501;45.956;13.632;2022-12-20T16:13:44;33.05;;;16.98;;
34236;SDS011;20501;45.956;13.632;2022-12-20T16:16:20;31.05;;;15.95;;
34236;SDS011;20501;45.956;13.632;2022-12-20T16:18:48;33.53;;;16.88;;
34236;SDS011;20501;45.956;13.632;2022-12-20T16:23:48;30.52;;;16.00;;
34236;SDS011;20501;45.956;13.632;2022-12-20T16:26:20;30.98;;;15.93;;
34236;SDS011;20501;45.956;13.632;2022-12-20T16:28:48;31.67;;;16.92;;
34236;SDS011;20501;45.956;13.632;2022-12-20T16:33:53;31.80;;;16.65;;
34236;SDS011;20501;45.956;13.632;2022-12-20T16:36:20;44.08;;;23.20;;
34236;SDS011;20501;45.956;13.632;2022-12-20T16:38:46;44.75;;;22.95;;
34236;SDS011;20501;45.956;13.632;2022-12-20T16:41:33;36.10;;;19.85;;
34236;SDS011;20501;45.956;13.632;2022-12-20T16:43:59;37.05;;;19.67;;
34236;SDS011;20501;45.956;13.632;2022-12-20T16:46:26;36.50;;;19.42;;
34236;SDS011;20501;45.956;13.632;2022-12-20T16:48:54;36.72;;;18.75;;
34236;SDS011;20501;45.956;13.632;2022-12-20T16:54:04;36.20;;;18.20;;
34236;SDS011;20501;45.956;13.632;2022-12-20T16:56:50;44.35;;;23.10;;
34236;SDS011;20501;45.956;13.632;2022-12-20T16:59:19;43.63;;;23.70;;